Página principal
METAR-TAF:

METAR-TAF

Aeroportos :

Bíldudalur, Islândia

latitude: 65-38-30N, longitude: 23-32-45W, altura: 8 m

Observação actual do tempo

O boletim foi feito há 11 minutos, às 10:00 UTC
Vento 9 kt de norte
Temperatura 10°C
Humidade 82%
Pressão 989 hPa
Visibilidade 10 km ou mais
Poucas nuvensa uma altura de 1800 ft
Nuvens fragmentadasa uma altura de 2000 ft
Encobertoa uma altura de 3200 ft
chuva fraca

METAR: BIBD 191000Z 01009KT 9999 -RA FEW018 BKN020 OVC032 10/07 Q0989

Hora: 10:11 (10:11 UTC)

Previsão

O boletim foi feito há 1 hora e 34 minutos, às 08:37 UTC
Previsão válida de 19 às 08 UTC a 19 às 17 UTC
Vento 12 kt de nor-nordeste
Visibilidade 10 km ou mais
Nuvens fragmentadasa uma altura de 2000 ft
Encobertoa uma altura de 3500 ft

TAF: BIBD 190837Z 1908/1917 02012KT 9999 BKN020 OVC035

Observações e previsões do tempo de mais de 4000 aeroportos (mensagens METAR e TAF).

As estações disponíveis são os pontos amarelos e vermelhos sobre o mapa.

Mova o rato sobre o mapa para ver o nome da estação.

Depois clique no ponto para visualizar as observações e previsões meteorológicas.

Para alterar o mapa : clique nos botões verdes com uma cruz preta para aumentar o zoom; no botão verde com uma pitada de zoom; ou nas setas verdes para mapas adjacentes.


METAR-TAF: